Bradenton, Florida
Current Conditions -  °F | °C
As of 8:53 PM on Friday 24 Oct 2014 (Local Time) from KSRQ Reporting Station
Few Clouds Few Clouds  
Wind Chill: 70°   Ceiling: Unl
Heat Index: 70°   Visibility: 10mi
Dew Point: 61°   Wind: 7mph
Humidity: 73%   Direction: 360°N
Pressure: 29.91"   Gusts: NA
Location:  27.5°N, 82.58°W
Report Text: KSRQ 250053Z 36006KT 10SM FEW050 21/16 A2991 RMK AO2 SLP128 T02110161
Loading
Personal Weather Stations






























Interactive Weather Map
Tropical Storm Tracking
New forecast layout! Learn more

10-Day Weather Forecast

Advertisements
Track Severe Weather on mobile